Terminal Aerodrome Forecast
Issued by NWS Green Bay, WI

Home | Current Version | Previous Version | Text Only | Print | Product List | Glossary Off
Versions: 1 2 3 4 5 6 7 8 9 10 11 12 13 14 15 16 17 18

000
FTUS43 KGRB 260520
TAFGRB
TAF
KGRB 260520Z 2606/2706 23004KT P6SM SCT080
      TEMPO 2609/2612 3SM BR
     FM261400 25006KT P6SM SCT040 PROB30 2620/2624 6SM -TSRA
      BKN040CB
     FM270100 VRB03KT P6SM SCT080=

USA.gov is the U.S. government's official web portal to all federal, state and local government web resources and services.